Juniata, NE (68955)

9:45 PM CDT on October 31, 2014 (GMT -0500)
Hastings Municipal | Change Station
CLOSE
Current Station
Airport
Location: Hastings,
Elevation: 1959 ft
Nearby Weather Stations

Elev 1959 ft 40.60 °N, 98.43 °W | Updated 52 minutes ago

Partly Cloudy
Partly Cloudy
33 °F
Feels Like 26 °F
N
9
Wind Variable Wind from SE

Today
High -- | Low -- °F
--% Chance of Precip.
Yesterday
High -- | Low -- °F
Precip. -- in
8:03 AM 6:31 PM
First Quarter, 61% visible
Pressure 30.45 in
Visibility 10.0 miles
Clouds Clear
Windchill 26 °F
Dew Point 14 °F
Humidity 46%
Rainfall 0.00 in
Snow Depth Not available.
UV 0 out of 12
Pollen .10 out of 12
Air Quality Not available.
Flu Activity Not available.
METAR KHSI 010153Z AUTO 13008KT 10SM CLR 01/M10 A3039 RMK AO2 SLP311 T00061100

More Conditions Fewer Conditions

Pressure 30.45 in
Visibility 10.0 miles
Clouds Clear
Windchill 26 °F
Dew Point 14 °F
Humidity 46%
Rainfall 0.00 in
Snow Depth Not available.
UV 0 out of 12
Pollen .10 out of 12
Air Quality Not available.
Flu Activity Not available.
METAR KHSI 010153Z AUTO 13008KT 10SM CLR 01/M10 A3039 RMK AO2 SLP311 T00061100

More Conditions Fewer Conditions

10-Day Weather Forecast

Almanac

Astronomy

Oct. 31, 2014 Rise Set
Actual Time
Civil Twilight
Nautical Twilight
Astronomical Twilight
Moon
Length of Visible Light
Length of Day
Tomorrow will be .
, % of the Moon is Illuminated

Today's Extremes

State Highs State Lows

Community

WunderPhotos

Upload Photos

1,766,824 photos uploaded!

WunderBlogs® & News

Nearby

Air Quality

  Air Quality AQ Index Pollutant
Not available.

Snow Depth

Station Depth Elevation

Earthquake Activity

City Distance Mag. Time & Date
Minimum magnitude displayed is 2.5.

Coastal Water Temperatures

Place Temperature

Nearby Weather Stations